createdAt,value
2022-08-16T00:08:37.057Z,12.18
2022-08-16T00:18:39.041Z,10.32
2022-08-16T00:28:40.541Z,12.15
2022-08-16T00:38:43.434Z,12.02
2022-08-16T00:48:45.876Z,13.77
2022-08-16T00:58:48.452Z,12.55
2022-08-16T01:08:54.897Z,13.32
2022-08-16T01:19:01.203Z,13.02
2022-08-16T01:29:10.777Z,13.55
2022-08-16T01:39:16.925Z,14.30
2022-08-16T01:49:25.855Z,16.00
2022-08-16T01:59:46.086Z,15.57
2022-08-16T02:09:56.887Z,17.75
2022-08-16T02:20:01.849Z,18.65
2022-08-16T02:30:36.719Z,17.63
2022-08-16T02:40:38.696Z,18.83
2022-08-16T02:50:54.767Z,19.80
2022-08-16T03:01:06.063Z,21.40
2022-08-16T03:11:20.504Z,21.60
2022-08-16T03:21:23.955Z,20.50
2022-08-16T03:31:26.139Z,21.83
2022-08-16T03:41:50.109Z,22.42
2022-08-16T03:51:55.796Z,23.25
2022-08-16T04:02:10.634Z,22.80
2022-08-16T04:12:52.477Z,24.10
2022-08-16T04:22:45.665Z,24.95
2022-08-16T04:32:51.052Z,22.83
2022-08-16T04:42:58.577Z,25.55
2022-08-16T04:53:02.897Z,25.67
2022-08-16T05:03:11.315Z,26.25
2022-08-16T05:13:19.665Z,24.23
2022-08-16T05:23:21.975Z,23.27
2022-08-16T05:33:26.154Z,23.38
2022-08-16T05:43:32.173Z,20.25
2022-08-16T05:53:47.186Z,18.50
2022-08-16T06:03:51.315Z,20.95
2022-08-16T06:14:19.381Z,18.35
2022-08-16T06:24:54.573Z,15.40
2022-08-16T06:34:57.137Z,15.50
2022-08-16T06:45:06.101Z,11.65
2022-08-16T06:55:33.754Z,10.93
2022-08-16T07:05:41.427Z,10.80
2022-08-16T07:15:51.215Z,10.75
2022-08-16T07:25:59.634Z,12.17
2022-08-16T07:36:01.441Z,10.93
2022-08-16T07:46:04.463Z,9.98
2022-08-16T07:56:11.098Z,8.80
2022-08-16T08:06:14.822Z,8.68
2022-08-16T08:16:18.927Z,8.88
2022-08-16T08:26:21.760Z,8.52
2022-08-16T08:36:33.409Z,8.65
2022-08-16T08:46:44.394Z,8.13
2022-08-16T08:57:02.935Z,8.40
2022-08-16T09:07:27.245Z,6.53
2022-08-16T09:17:49.235Z,5.72
2022-08-16T09:27:57.099Z,6.60
2022-08-16T09:38:01.321Z,7.03
2022-08-16T09:48:03.297Z,7.85
2022-08-16T09:58:05.467Z,7.20
2022-08-16T10:08:25.840Z,7.25
2022-08-16T10:19:00.304Z,6.35
2022-08-16T10:28:52.247Z,7.35
2022-08-16T10:38:53.717Z,6.88
2022-08-16T10:48:55.150Z,6.50
2022-08-16T10:59:28.849Z,6.28
2022-08-16T11:09:25.560Z,7.35
2022-08-16T11:19:30.459Z,9.25
2022-08-16T11:29:31.875Z,6.45
2022-08-16T11:39:34.286Z,6.68
2022-08-16T11:49:35.845Z,6.93
2022-08-16T11:59:40.000Z,7.30
2022-08-16T12:09:43.551Z,8.43
2022-08-16T12:19:45.176Z,10.45
2022-08-16T12:29:47.232Z,10.02
2022-08-16T12:39:51.138Z,9.07
2022-08-16T12:49:54.330Z,8.52
2022-08-16T12:59:55.749Z,8.80
2022-08-16T13:09:57.585Z,8.07
2022-08-16T13:20:08.041Z,8.30
2022-08-16T13:30:35.449Z,4.22
2022-08-16T13:40:32.753Z,4.75
2022-08-16T13:50:49.647Z,4.57
2022-08-16T14:00:53.650Z,4.60
2022-08-16T14:10:55.981Z,4.88
2022-08-16T14:20:57.399Z,5.55
2022-08-16T14:30:58.998Z,5.47
2022-08-16T14:41:01.777Z,5.20
2022-08-16T14:51:03.869Z,5.68
2022-08-16T15:01:10.005Z,5.80
2022-08-16T15:11:11.924Z,5.25
2022-08-16T15:21:13.835Z,5.45
2022-08-16T15:31:15.360Z,5.82
2022-08-16T15:41:28.975Z,5.85
2022-08-16T15:51:30.488Z,6.35
2022-08-16T16:01:32.486Z,5.45
2022-08-16T16:11:34.654Z,5.65
2022-08-16T16:21:37.136Z,5.78
2022-08-16T16:31:41.252Z,6.43
2022-08-16T16:41:45.423Z,6.22
2022-08-16T16:51:49.684Z,6.03
2022-08-16T17:02:00.377Z,6.30
2022-08-16T17:12:24.715Z,5.13
2022-08-16T17:22:32.742Z,5.70
2022-08-16T17:32:34.660Z,5.00
2022-08-16T17:42:52.804Z,5.30
2022-08-16T17:52:55.536Z,6.72
2022-08-16T18:02:58.304Z,6.20
2022-08-16T18:13:00.563Z,6.75
2022-08-16T18:23:09.784Z,6.00
2022-08-16T18:33:16.045Z,7.10
2022-08-16T18:43:19.915Z,7.60
2022-08-16T18:53:22.457Z,8.48
2022-08-16T19:03:27.696Z,13.40
2022-08-16T19:13:30.575Z,13.80
2022-08-16T19:23:33.384Z,13.82
2022-08-16T19:33:35.408Z,17.27
2022-08-16T19:43:38.517Z,17.73
2022-08-16T19:53:39.977Z,18.83
2022-08-16T20:03:41.376Z,21.13
2022-08-16T20:13:42.805Z,20.85
2022-08-16T20:23:44.242Z,23.08
2022-08-16T20:33:45.874Z,25.08
2022-08-16T20:43:48.771Z,23.40
2022-08-16T20:53:50.276Z,22.65
2022-08-16T21:03:51.697Z,18.92
2022-08-16T21:14:00.321Z,21.40
2022-08-16T21:24:02.310Z,21.60
2022-08-16T21:34:03.700Z,24.50
2022-08-16T21:44:05.806Z,26.75
2022-08-16T21:54:07.286Z,25.85
2022-08-16T22:04:36.532Z,28.05
2022-08-16T22:14:32.322Z,26.95
2022-08-16T22:24:33.799Z,30.58
2022-08-16T22:34:35.233Z,34.50
2022-08-16T22:44:37.491Z,33.58
2022-08-16T22:54:48.358Z,33.25
2022-08-16T23:04:50.388Z,33.80
2022-08-16T23:14:51.812Z,36.53
2022-08-16T23:24:56.603Z,38.30
2022-08-16T23:35:02.944Z,36.40
2022-08-16T23:45:05.813Z,38.20
2022-08-16T23:55:07.702Z,39.50
